Time;durP1;ratioP1;P1;durP2;ratioP2;P2;SDS_P1;SDS_P2;PMS_P1;PMS_P2;Temp;Humidity;BMP_temperature;BMP_pressure;BME280_temperature;BME280_humidity;BME280_pressure;Samples;Min_cycle;Max_cycle;Signal;HPM_P1;HPM_P2
2023/06/27 00:01:52;;;;;;;4.20;2.07;;;18.20;1.00;;;;;;5018945;28;20639;-61
2023/06/27 00:04:19;;;;;;;6.10;1.87;;;18.20;1.00;;;;;;5040521;28;20727;-57
2023/06/27 00:06:46;;;;;;;4.23;2.20;;;18.20;1.00;;;;;;5039531;28;20211;-58
2023/06/27 00:09:15;;;;;;;2.23;1.53;;;18.20;1.00;;;;;;5038947;28;20232;-57
2023/06/27 00:11:42;;;;;;;6.00;2.07;;;18.20;1.00;;;;;;5040194;28;20634;-60
2023/06/27 00:14:09;;;;;;;5.30;1.97;;;18.10;1.00;;;;;;5038209;28;20206;-57
2023/06/27 00:16:38;;;;;;;3.47;1.90;;;18.20;1.00;;;;;;5038622;28;20192;-60
2023/06/27 00:19:05;;;;;;;5.37;2.40;;;18.10;1.00;;;;;;5039441;28;20256;-61
2023/06/27 00:21:34;;;;;;;6.10;2.20;;;18.00;1.00;;;;;;5037877;28;20361;-60
2023/06/27 00:24:03;;;;;;;3.13;2.37;;;18.00;1.00;;;;;;5036052;28;20282;-61
2023/06/27 00:26:30;;;;;;;4.20;2.23;;;18.10;1.00;;;;;;5040403;28;20219;-63
2023/06/27 00:28:57;;;;;;;3.43;1.80;;;18.10;1.00;;;;;;5040184;28;20208;-61
2023/06/27 00:31:25;;;;;;;6.27;2.07;;;18.00;1.00;;;;;;5036013;28;20210;-61
2023/06/27 00:33:52;;;;;;;6.37;1.87;;;18.00;1.00;;;;;;5036630;28;20301;-63
2023/06/27 00:36:19;;;;;;;3.10;1.80;;;18.00;1.00;;;;;;5040406;28;20261;-61
2023/06/27 00:38:46;;;;;;;5.50;2.20;;;17.90;1.00;;;;;;5038915;28;20196;-61
2023/06/27 00:41:13;;;;;;;4.53;2.00;;;17.90;1.00;;;;;;5037957;28;20200;-60
2023/06/27 00:43:40;;;;;;;5.67;2.27;;;18.00;1.00;;;;;;5021671;28;20203;-65
2023/06/27 00:46:09;;;;;;;4.30;1.97;;;18.00;1.00;;;;;;5039012;28;20303;-65
2023/06/27 00:48:36;;;;;;;3.60;2.37;;;18.00;1.00;;;;;;5036820;28;20200;-66
2023/06/27 00:51:04;;;;;;;8.87;2.80;;;18.00;1.00;;;;;;5018724;28;20203;-63
2023/06/27 00:53:31;;;;;;;7.07;2.20;;;17.70;1.00;;;;;;5024306;28;20258;-63
2023/06/27 00:55:58;;;;;;;3.07;2.20;;;17.80;1.00;;;;;;5035478;28;20204;-62
2023/06/27 00:58:26;;;;;;;4.43;2.17;;;17.70;49.40;;;;;;5038214;28;20197;-62
2023/06/27 01:00:53;;;;;;;6.47;2.43;;;17.60;1.00;;;;;;5039893;28;20212;-63
2023/06/27 01:03:21;;;;;;;8.20;2.70;;;17.70;99.90;;;;;;5035345;28;20235;-62
2023/06/27 01:05:48;;;;;;;3.77;2.30;;;17.70;99.90;;;;;;5037609;28;20215;-62
2023/06/27 01:08:34;;;;;;;5.10;2.70;;;17.50;99.90;;;;;;5037754;28;20236;-63
2023/06/27 01:11:11;;;;;;;4.87;2.67;;;17.40;99.90;;;;;;5038349;28;20262;-60
2023/06/27 01:13:47;;;;;;;5.10;2.83;;;17.40;1.00;;;;;;5036366;28;20200;-62
2023/06/27 01:16:18;;;;;;;6.90;2.77;;;17.40;1.00;;;;;;5038506;28;20287;-63
2023/06/27 01:18:47;;;;;;;7.33;2.40;;;17.50;1.00;;;;;;5018778;28;20231;-62
2023/06/27 01:21:16;;;;;;;7.53;2.70;;;17.50;1.00;;;;;;5036455;28;20204;-61
2023/06/27 01:23:54;;;;;;;7.53;2.57;;;17.50;99.90;;;;;;5035132;28;20208;-62
2023/06/27 01:26:22;;;;;;;5.30;2.43;;;17.60;99.90;;;;;;5040054;28;20214;-58
2023/06/27 01:28:50;;;;;;;6.83;2.73;;;17.50;99.90;;;;;;5038321;28;20195;-58
2023/06/27 01:31:31;;;;;;;5.70;2.53;;;17.50;1.00;;;;;;5035955;28;20250;-58
2023/06/27 01:34:10;;;;;;;9.70;3.13;;;17.30;1.00;;;;;;5040759;28;20202;-58
2023/06/27 01:37:04;;;;;;;7.80;2.50;;;17.40;1.00;;;;;;5042124;28;20206;-60
2023/06/27 01:39:57;;;;;;;6.63;2.80;;;17.40;1.00;;;;;;5041000;28;20234;-57
2023/06/27 01:42:28;;;;;;;6.63;2.70;;;17.50;1.00;;;;;;5041669;28;20211;-59
2023/06/27 01:44:56;;;;;;;5.60;2.53;;;17.60;1.00;;;;;;5039183;28;20245;-59
2023/06/27 01:47:24;;;;;;;6.50;3.00;;;17.50;1.00;;;;;;5038856;28;20231;-58
2023/06/27 01:49:51;;;;;;;7.50;3.20;;;17.40;1.00;;;;;;5039245;28;20661;-58
2023/06/27 01:52:19;;;;;;;5.70;3.20;;;17.40;1.00;;;;;;5038832;28;20215;-59
2023/06/27 01:54:46;;;;;;;7.00;2.77;;;17.40;1.00;;;;;;5040286;28;21574;-57
2023/06/27 01:57:13;;;;;;;6.93;2.93;;;17.40;1.00;;;;;;5041243;28;20948;-57
2023/06/27 01:59:39;;;;;;;6.87;2.60;;;17.30;1.00;;;;;;5041144;28;20200;-56
2023/06/27 02:02:06;;;;;;;10.20;2.60;;;17.40;1.00;;;;;;5040071;28;20208;-62
2023/06/27 02:04:34;;;;;;;9.60;3.00;;;17.40;1.00;;;;;;5041830;28;20204;-58
2023/06/27 02:07:01;;;;;;;5.53;2.60;;;17.40;1.00;;;;;;5041077;28;20225;-59
2023/06/27 02:09:28;;;;;;;9.30;3.03;;;17.30;1.00;;;;;;5040058;28;20202;-60
2023/06/27 02:11:55;;;;;;;5.37;2.63;;;17.30;1.00;;;;;;5041395;28;20212;-60
2023/06/27 02:14:22;;;;;;;14.60;3.07;;;17.30;1.00;;;;;;5041366;28;20592;-57
2023/06/27 02:16:48;;;;;;;7.47;2.57;;;17.20;1.00;;;;;;5040158;28;20208;-61
2023/06/27 02:19:15;;;;;;;9.07;3.47;;;17.20;1.00;;;;;;5026757;28;20795;-60
2023/06/27 02:21:43;;;;;;;12.40;3.20;;;17.20;1.00;;;;;;5027423;28;20598;-58
2023/06/27 02:24:10;;;;;;;4.23;2.57;;;17.30;1.00;;;;;;5039557;28;20211;-59
2023/06/27 02:26:37;;;;;;;7.97;3.27;;;17.20;1.00;;;;;;5041438;28;20278;-59
2023/06/27 02:29:04;;;;;;;6.53;2.90;;;17.20;1.00;;;;;;5039786;28;20278;-59
2023/06/27 02:31:31;;;;;;;10.97;3.43;;;17.30;1.00;;;;;;5038841;28;20709;-58
2023/06/27 02:33:58;;;;;;;10.10;2.80;;;17.20;1.00;;;;;;5038189;28;20195;-58
2023/06/27 02:36:27;;;;;;;7.03;2.90;;;17.20;1.00;;;;;;5040302;28;20301;-58
2023/06/27 02:38:54;;;;;;;11.43;3.33;;;17.00;99.90;;;;;;5038701;28;21575;-59
2023/06/27 02:41:22;;;;;;;12.47;3.27;;;17.00;99.90;;;;;;5041632;28;20557;-59
2023/06/27 02:43:50;;;;;;;5.53;2.43;;;17.10;99.90;;;;;;5038663;28;21103;-60
2023/06/27 02:46:17;;;;;;;8.30;3.30;;;17.10;99.90;;;;;;5039252;28;20224;-58
2023/06/27 02:48:44;;;;;;;6.03;3.20;;;17.10;1.00;;;;;;5037588;28;20290;-61
2023/06/27 02:51:11;;;;;;;14.43;3.90;;;17.00;1.00;;;;;;5035802;28;20207;-59
2023/06/27 02:53:37;;;;;;;11.97;3.37;;;16.90;1.00;;;;;;5025954;28;20401;-58
2023/06/27 02:56:05;;;;;;;9.63;3.50;;;16.90;1.00;;;;;;5022633;28;20211;-58
2023/06/27 02:58:32;;;;;;;10.00;3.30;;;16.90;1.00;;;;;;5040561;28;20616;-59
2023/06/27 03:00:59;;;;;;;7.20;2.90;;;16.90;1.00;;;;;;5040152;28;20204;-58
2023/06/27 03:03:26;;;;;;;9.73;3.40;;;17.00;1.00;;;;;;5037615;28;20204;-57
2023/06/27 03:05:53;;;;;;;8.90;3.07;;;17.00;1.00;;;;;;5039645;28;20221;-58
2023/06/27 03:08:20;;;;;;;6.57;3.30;;;16.90;1.00;;;;;;5039008;28;20236;-61
2023/06/27 03:10:46;;;;;;;9.77;3.20;;;17.00;1.00;;;;;;5019647;28;20240;-58
2023/06/27 03:13:13;;;;;;;11.03;3.33;;;17.00;1.00;;;;;;5039021;28;20223;-58
2023/06/27 03:15:40;;;;;;;6.73;3.20;;;17.00;1.00;;;;;;5024230;28;20219;-59
2023/06/27 03:18:07;;;;;;;8.83;3.17;;;16.90;1.00;;;;;;5039797;28;20303;-58
2023/06/27 03:20:34;;;;;;;8.23;3.10;;;17.00;1.00;;;;;;5039170;28;20681;-59
2023/06/27 03:23:01;;;;;;;7.90;3.07;;;17.00;1.00;;;;;;5038049;28;20208;-59
2023/06/27 03:25:28;;;;;;;5.43;3.30;;;17.00;1.00;;;;;;5040421;28;20223;-59
2023/06/27 03:27:55;;;;;;;8.67;3.03;;;17.00;1.00;;;;;;5039081;28;20651;-60
2023/06/27 03:30:21;;;;;;;7.03;3.60;;;17.10;1.00;;;;;;5036408;28;20219;-61
2023/06/27 03:32:48;;;;;;;9.80;3.87;;;17.10;1.00;;;;;;5037373;28;20211;-58
2023/06/27 03:35:15;;;;;;;12.43;3.17;;;16.90;1.00;;;;;;5040043;28;20654;-59
2023/06/27 03:37:42;;;;;;;9.97;2.90;;;17.00;1.00;;;;;;5022305;28;20196;-58
2023/06/27 03:40:09;;;;;;;6.87;2.83;;;16.80;55.10;;;;;;5038225;28;20200;-59
2023/06/27 03:42:36;;;;;;;12.97;4.40;;;16.90;4.30;;;;;;5040197;28;20204;-56
2023/06/27 03:45:03;;;;;;;7.03;3.07;;;16.90;99.90;;;;;;5037269;28;20197;-67
2023/06/27 03:47:30;;;;;;;9.23;3.03;;;16.90;33.70;;;;;;5025140;28;20684;-62
2023/06/27 03:49:57;;;;;;;6.30;3.33;;;16.90;1.00;;;;;;5038636;28;20661;-63
2023/06/27 03:52:24;;;;;;;11.13;3.00;;;16.80;99.90;;;;;;5037631;28;20663;-62
2023/06/27 03:54:51;;;;;;;7.70;3.20;;;16.90;99.90;;;;;;5036681;28;20663;-61
2023/06/27 03:57:18;;;;;;;8.47;3.57;;;16.80;1.00;;;;;;5036146;28;20203;-61
2023/06/27 03:59:45;;;;;;;8.57;3.87;;;17.00;1.00;;;;;;5038115;28;20231;-61
2023/06/27 04:02:12;;;;;;;7.97;2.97;;;17.00;1.00;;;;;;5036591;28;20653;-61
2023/06/27 04:04:39;;;;;;;8.50;3.20;;;17.00;1.00;;;;;;5035727;28;20209;-61
2023/06/27 04:07:09;;;;;;;8.80;3.23;;;17.00;1.00;;;;;;5020800;28;20207;-61
2023/06/27 04:09:36;;;;;;;9.13;3.23;;;17.00;1.00;;;;;;5039733;28;20191;-62
2023/06/27 04:12:03;;;;;;;9.43;3.27;;;17.00;1.00;;;;;;5036927;28;20191;-62
2023/06/27 04:14:31;;;;;;;6.53;2.73;;;16.90;99.90;;;;;;5038396;28;20235;-61
2023/06/27 04:16:58;;;;;;;10.33;3.43;;;16.90;99.90;;;;;;5039032;28;20663;-61
2023/06/27 04:19:24;;;;;;;8.57;3.30;;;17.00;99.90;;;;;;5037216;28;20255;-61
2023/06/27 04:21:51;;;;;;;7.47;3.37;;;16.80;1.00;;;;;;5036905;28;20208;-62
2023/06/27 04:24:18;;;;;;;9.27;3.70;;;16.70;99.90;;;;;;5034004;28;20647;-60
2023/06/27 04:26:45;;;;;;;9.50;2.93;;;16.80;1.00;;;;;;5024617;28;20213;-60
2023/06/27 04:29:11;;;;;;;8.90;3.03;;;16.60;1.00;;;;;;5032986;28;20228;-63
2023/06/27 04:31:38;;;;;;;6.53;2.93;;;16.70;1.00;;;;;;5036730;28;20203;-64
2023/06/27 04:34:08;;;;;;;4.67;3.17;;;16.70;99.90;;;;;;5035218;28;20239;-60
2023/06/27 04:36:40;;;;;;;10.77;3.67;;;16.60;1.00;;;;;;5039719;28;20567;-60
2023/06/27 04:39:09;;;;;;;9.30;3.13;;;16.70;1.00;;;;;;5037700;28;20208;-60
2023/06/27 04:41:35;;;;;;;11.93;3.80;;;16.60;1.00;;;;;;5038634;28;20216;-60
2023/06/27 04:44:03;;;;;;;8.50;3.10;;;16.70;1.00;;;;;;5017792;28;20209;-60
2023/06/27 04:46:29;;;;;;;10.37;3.33;;;16.70;1.00;;;;;;5036959;28;20372;-61
2023/06/27 04:48:57;;;;;;;10.73;4.07;;;16.60;1.00;;;;;;5038515;28;20200;-61
2023/06/27 04:51:28;;;;;;;13.63;4.07;;;16.60;1.00;;;;;;5039472;28;20200;-61
2023/06/27 04:53:55;;;;;;;9.23;3.73;;;16.50;53.00;;;;;;5038293;28;20208;-62
2023/06/27 04:56:23;;;;;;;14.93;3.97;;;16.60;1.00;;;;;;5036441;28;20258;-60
2023/06/27 04:58:49;;;;;;;10.37;3.63;;;16.60;1.00;;;;;;5036944;28;20253;-60
2023/06/27 05:01:16;;;;;;;10.83;3.60;;;16.30;1.00;;;;;;5029252;28;20232;-60
2023/06/27 05:03:43;;;;;;;8.53;3.53;;;16.30;99.90;;;;;;5031025;28;20742;-59
2023/06/27 05:06:10;;;;;;;9.83;3.97;;;16.40;99.90;;;;;;5035887;28;20313;-60
2023/06/27 05:08:37;;;;;;;11.03;4.20;;;16.40;1.00;;;;;;5036181;28;20239;-60
2023/06/27 05:11:04;;;;;;;10.50;3.80;;;16.40;1.00;;;;;;5040394;28;20207;-60
2023/06/27 05:13:31;;;;;;;12.20;3.90;;;16.60;26.60;;;;;;5023699;28;20200;-60
2023/06/27 05:15:58;;;;;;;13.43;4.20;;;16.70;1.00;;;;;;5034090;28;20204;-61
2023/06/27 05:18:26;;;;;;;9.70;4.70;;;16.60;1.00;;;;;;5037780;28;20224;-61
2023/06/27 05:20:53;;;;;;;12.87;4.07;;;16.60;99.90;;;;;;5039350;28;20212;-61
2023/06/27 05:23:21;;;;;;;15.23;4.10;;;16.80;1.00;;;;;;5022947;28;20223;-61
2023/06/27 05:25:49;;;;;;;12.07;4.07;;;16.80;1.00;;;;;;5040198;28;20204;-61
2023/06/27 05:28:16;;;;;;;8.50;3.87;;;16.80;1.00;;;;;;5039137;28;20200;-59
2023/06/27 05:30:43;;;;;;;7.87;4.17;;;17.00;99.90;;;;;;5020293;28;20200;-64
2023/06/27 05:33:10;;;;;;;10.13;4.30;;;17.10;1.00;;;;;;5037890;28;20718;-59
2023/06/27 05:35:37;;;;;;;11.63;4.60;;;17.00;99.90;;;;;;5037138;28;20243;-58
2023/06/27 05:38:04;;;;;;;14.73;4.33;;;17.30;1.00;;;;;;5035859;28;20207;-61
2023/06/27 05:40:31;;;;;;;12.83;4.60;;;17.30;1.00;;;;;;5039025;28;20229;-62
2023/06/27 05:42:58;;;;;;;7.37;4.13;;;17.20;99.90;;;;;;5037273;28;21301;-60
2023/06/27 05:45:25;;;;;;;11.23;4.13;;;17.40;1.00;;;;;;5038656;28;20250;-60
2023/06/27 05:47:52;;;;;;;8.40;3.83;;;17.60;1.00;;;;;;5037222;28;20282;-60
2023/06/27 05:50:18;;;;;;;12.10;4.40;;;17.60;1.00;;;;;;5025574;28;20196;-60
2023/06/27 05:52:45;;;;;;;10.17;4.57;;;17.70;1.00;;;;;;5037114;28;20200;-60
2023/06/27 05:55:12;;;;;;;11.97;4.17;;;17.60;1.00;;;;;;5036760;28;20211;-60
2023/06/27 05:57:39;;;;;;;11.67;4.53;;;17.60;1.00;;;;;;5017528;28;20211;-60
2023/06/27 06:00:10;;;;;;;8.40;4.13;;;17.90;1.00;;;;;;5039547;28;20215;-60
2023/06/27 06:02:38;;;;;;;12.33;4.43;;;17.70;1.00;;;;;;5016278;28;20595;-63
2023/06/27 06:05:07;;;;;;;10.50;4.57;;;17.90;1.00;;;;;;5020465;28;21634;-62
2023/06/27 06:07:34;;;;;;;8.20;3.77;;;18.00;38.80;;;;;;5039710;28;20239;-61
2023/06/27 06:10:05;;;;;;;10.20;4.40;;;17.90;90.40;;;;;;5036808;28;20196;-60
2023/06/27 06:12:32;;;;;;;14.90;3.87;;;17.90;99.90;;;;;;5038055;28;20630;-60
2023/06/27 06:14:59;;;;;;;12.23;3.77;;;17.90;99.90;;;;;;5019818;28;20227;-59
2023/06/27 06:17:26;;;;;;;12.13;4.27;;;18.00;99.90;;;;;;5020125;28;20209;-61
2023/06/27 06:19:54;;;;;;;15.13;3.67;;;18.10;1.00;;;;;;4658037;28;10000371;-62
2023/06/27 06:22:21;;;;;;;8.23;3.73;;;18.10;1.00;;;;;;5000434;28;20202;-61
2023/06/27 06:24:49;;;;;;;13.67;4.40;;;18.30;99.90;;;;;;5008311;28;20210;-60
2023/06/27 06:27:16;;;;;;;10.57;3.63;;;18.40;82.50;;;;;;5019894;28;20617;-61
2023/06/27 06:29:43;;;;;;;9.13;3.63;;;18.60;1.00;;;;;;5021259;28;20211;-58
2023/06/27 06:32:10;;;;;;;7.97;3.70;;;18.80;1.00;;;;;;5034276;28;20578;-59
2023/06/27 06:34:37;;;;;;;10.07;3.40;;;18.80;55.20;;;;;;5021216;28;20678;-59
2023/06/27 06:37:04;;;;;;;7.27;3.30;;;18.80;82.80;;;;;;5037022;28;20213;-59
2023/06/27 06:39:31;;;;;;;8.73;3.23;;;18.90;1.00;;;;;;5034381;28;20207;-61
2023/06/27 06:41:57;;;;;;;8.10;3.97;;;19.10;1.00;;;;;;5002108;28;20255;-62
2023/06/27 06:44:24;;;;;;;9.63;3.50;;;19.20;99.90;;;;;;5038179;28;20664;-59
2023/06/27 06:46:51;;;;;;;8.70;3.70;;;19.40;99.90;;;;;;4997739;28;20631;-59
2023/06/27 06:49:18;;;;;;;7.23;2.90;;;19.60;99.90;;;;;;5033358;28;20199;-59
2023/06/27 06:51:46;;;;;;;7.23;3.10;;;19.70;1.00;;;;;;5019289;28;20240;-61
2023/06/27 06:54:13;;;;;;;9.10;2.97;;;20.00;1.00;;;;;;5022772;28;20200;-59
2023/06/27 06:56:40;;;;;;;8.73;3.10;;;20.20;1.00;;;;;;5040712;28;20286;-59
2023/06/27 06:59:06;;;;;;;6.03;2.47;;;20.50;1.00;;;;;;5033579;28;20215;-59
2023/06/27 07:01:33;;;;;;;6.83;2.40;;;20.60;1.00;;;;;;5037372;28;20208;-59
2023/06/27 07:04:00;;;;;;;5.47;2.53;;;20.80;99.90;;;;;;5035626;28;20568;-61
2023/06/27 07:06:28;;;;;;;6.20;2.40;;;21.00;3.10;;;;;;5008664;28;20298;-61
2023/06/27 07:08:55;;;;;;;5.40;2.00;;;21.20;99.90;;;;;;5017593;28;20239;-62
2023/06/27 07:11:22;;;;;;;10.23;2.93;;;21.50;99.90;;;;;;5037458;28;20200;-61
2023/06/27 07:13:49;;;;;;;11.83;1.93;;;21.80;99.90;;;;;;5005576;28;20199;-61
2023/06/27 07:16:16;;;;;;;4.93;1.50;;;21.80;1.00;;;;;;5038589;28;20207;-61
2023/06/27 07:18:44;;;;;;;4.70;1.60;;;21.80;1.00;;;;;;5040858;28;20553;-61
2023/06/27 07:21:11;;;;;;;4.78;1.98;;;21.70;1.00;;;;;;5018629;28;20443;-59
2023/06/27 07:23:38;;;;;;;3.60;1.80;;;22.10;1.00;;;;;;5018667;28;20565;-61
2023/06/27 07:26:05;;;;;;;7.73;1.50;;;21.70;1.00;;;;;;5038687;28;20201;-59
2023/06/27 07:28:32;;;;;;;4.03;1.47;;;21.40;1.00;;;;;;5037982;28;20250;-61
2023/06/27 07:30:59;;;;;;;4.20;1.50;;;21.40;1.00;;;;;;5038670;28;20236;-61
2023/06/27 07:33:25;;;;;;;5.30;1.50;;;21.90;1.00;;;;;;5039448;28;20364;-58
2023/06/27 07:35:52;;;;;;;6.20;1.63;;;22.20;1.00;;;;;;5039749;28;20969;-61
2023/06/27 07:38:19;;;;;;;4.57;1.60;;;21.90;1.00;;;;;;5040871;28;20304;-59
2023/06/27 07:40:46;;;;;;;7.43;1.93;;;21.80;1.00;;;;;;5041489;28;20211;-59
2023/06/27 07:43:13;;;;;;;6.00;1.60;;;21.80;1.00;;;;;;5034341;28;20341;-62
2023/06/27 07:45:40;;;;;;;7.30;1.80;;;21.80;1.00;;;;;;5039712;28;20269;-61
2023/06/27 07:48:07;;;;;;;5.83;1.57;;;21.90;1.00;;;;;;5039613;28;20208;-63
2023/06/27 07:50:34;;;;;;;3.97;1.67;;;21.90;1.00;;;;;;5041778;28;20199;-61
2023/06/27 07:53:01;;;;;;;5.70;1.53;;;22.10;1.00;;;;;;5038374;28;20207;-59
2023/06/27 07:55:27;;;;;;;4.90;1.43;;;22.00;1.00;;;;;;5025392;28;20199;-59
2023/06/27 07:57:54;;;;;;;3.67;1.30;;;21.90;1.00;;;;;;5036112;28;20596;-61
2023/06/27 08:00:22;;;;;;;3.47;1.40;;;21.70;1.00;;;;;;5037849;28;20209;-61
2023/06/27 08:02:49;;;;;;;2.93;1.33;;;21.70;1.00;;;;;;5039569;28;20207;-62
2023/06/27 08:05:18;;;;;;;4.53;1.40;;;21.80;1.00;;;;;;5038863;28;20544;-61
2023/06/27 08:07:45;;;;;;;2.27;1.27;;;21.80;1.00;;;;;;5021406;28;20627;-61
2023/06/27 08:10:12;;;;;;;6.07;1.40;;;21.70;1.00;;;;;;5038712;28;20232;-60
2023/06/27 08:12:38;;;;;;;4.43;1.60;;;21.70;1.00;;;;;;5037604;28;20212;-60
2023/06/27 08:15:06;;;;;;;4.23;1.60;;;21.90;1.00;;;;;;5038604;28;20200;-61
2023/06/27 08:17:33;;;;;;;5.33;1.30;;;21.80;1.00;;;;;;5038840;28;20207;-60
2023/06/27 08:19:59;;;;;;;4.30;1.53;;;21.90;1.00;;;;;;5038425;28;20801;-63
2023/06/27 08:22:26;;;;;;;5.13;1.50;;;22.10;1.00;;;;;;5039387;28;20276;-63
2023/06/27 08:24:53;;;;;;;2.30;1.53;;;22.10;1.00;;;;;;5039774;28;20564;-61
2023/06/27 08:27:20;;;;;;;4.50;1.97;;;22.00;1.00;;;;;;5037696;28;20224;-61
2023/06/27 08:29:47;;;;;;;3.17;1.57;;;22.00;1.00;;;;;;5036643;28;20246;-65
2023/06/27 08:32:14;;;;;;;6.70;1.93;;;21.90;1.00;;;;;;5038928;28;20200;-60
2023/06/27 08:34:41;;;;;;;6.57;1.80;;;21.90;1.00;;;;;;5007190;28;20203;-61
2023/06/27 08:37:08;;;;;;;3.37;1.67;;;21.80;1.00;;;;;;5038653;28;20238;-62
2023/06/27 08:39:37;;;;;;;4.37;1.60;;;21.50;1.00;;;;;;5040698;28;20215;-61
2023/06/27 08:42:03;;;;;;;2.93;1.27;;;21.20;1.00;;;;;;5040745;28;20266;-61
2023/06/27 08:44:30;;;;;;;5.20;2.17;;;21.40;1.00;;;;;;5039728;28;20204;-59
2023/06/27 08:47:04;;;;;;;3.67;1.47;;;21.10;1.00;;;;;;5043635;28;20208;-60
2023/06/27 08:49:33;;;;;;;3.10;1.27;;;21.30;1.00;;;;;;5043446;28;20212;-60
2023/06/27 08:52:02;;;;;;;3.73;1.10;;;21.30;1.00;;;;;;5044662;28;20199;-60
2023/06/27 08:54:35;;;;;;;4.00;1.40;;;21.00;1.00;;;;;;5041363;28;20599;-59
2023/06/27 08:57:04;;;;;;;3.83;1.10;;;21.10;1.00;;;;;;5041899;28;20196;-59
2023/06/27 08:59:37;;;;;;;3.63;1.20;;;21.10;1.00;;;;;;5041417;28;20200;-58
2023/06/27 09:02:06;;;;;;;2.80;0.97;;;21.10;1.00;;;;;;5042790;28;20203;-61
2023/06/27 09:04:34;;;;;;;3.83;0.93;;;21.10;1.00;;;;;;5042458;28;20250;-61
2023/06/27 09:07:03;;;;;;;3.63;1.00;;;21.00;1.00;;;;;;5042268;28;20220;-61
2023/06/27 09:09:30;;;;;;;2.90;1.00;;;21.10;1.00;;;;;;5042218;28;20235;-61
2023/06/27 09:12:01;;;;;;;3.10;1.13;;;21.00;1.00;;;;;;5043432;28;20200;-61
2023/06/27 09:14:28;;;;;;;1.33;0.90;;;21.20;1.00;;;;;;5023304;28;20959;-61
2023/06/27 09:16:55;;;;;;;4.07;0.90;;;21.20;1.00;;;;;;5043705;28;20208;-60
2023/06/27 09:19:22;;;;;;;2.50;0.80;;;21.20;1.00;;;;;;5040555;28;20594;-61
2023/06/27 09:21:50;;;;;;;4.13;0.97;;;21.50;1.00;;;;;;5039535;28;20196;-60
2023/06/27 09:24:22;;;;;;;4.07;1.17;;;21.60;1.00;;;;;;5040771;28;20204;-60
2023/06/27 09:26:49;;;;;;;1.63;0.90;;;21.80;1.00;;;;;;5040811;28;20304;-60
2023/06/27 09:29:16;;;;;;;2.30;0.80;;;22.00;1.00;;;;;;5042855;28;20669;-61
2023/06/27 09:31:43;;;;;;;2.47;0.97;;;22.10;1.00;;;;;;5043357;28;20291;-60
2023/06/27 09:34:10;;;;;;;3.23;1.03;;;22.00;1.00;;;;;;5043344;28;20196;-61
2023/06/27 09:36:39;;;;;;;3.10;1.10;;;21.90;99.90;;;;;;5042104;28;20195;-61
2023/06/27 09:39:16;;;;;;;2.53;1.20;;;21.80;99.90;;;;;;5024537;28;20203;-58
2023/06/27 09:41:49;;;;;;;2.93;0.90;;;21.70;99.90;;;;;;5023588;28;20191;-61
2023/06/27 09:44:20;;;;;;;2.40;1.07;;;21.90;1.00;;;;;;5038148;28;20212;-62
2023/06/27 09:46:48;;;;;;;4.40;1.00;;;21.80;99.90;;;;;;5036244;28;20203;-60
2023/06/27 09:49:16;;;;;;;9.07;1.90;;;21.80;99.90;;;;;;5036042;28;20212;-58
2023/06/27 09:51:49;;;;;;;1.77;0.87;;;21.90;99.90;;;;;;5043004;28;20614;-58
2023/06/27 09:54:21;;;;;;;1.90;1.07;;;22.00;99.90;;;;;;5039433;28;20200;-59
2023/06/27 09:56:50;;;;;;;5.37;1.30;;;22.10;99.90;;;;;;5041099;28;20217;-59
2023/06/27 09:59:22;;;;;;;1.90;0.90;;;22.00;1.00;;;;;;5025668;28;20601;-59
2023/06/27 10:01:52;;;;;;;2.70;0.90;;;22.00;99.90;;;;;;5024713;28;20662;-63
2023/06/27 10:04:39;;;;;;;4.53;1.40;;;22.00;1.00;;;;;;5042492;28;20228;-62
2023/06/27 10:07:13;;;;;;;3.27;0.97;;;22.00;1.00;;;;;;5030649;28;20223;-62
2023/06/27 10:09:41;;;;;;;3.47;1.23;;;21.90;1.00;;;;;;5041700;28;20207;-63
2023/06/27 10:12:08;;;;;;;2.60;1.20;;;22.00;1.00;;;;;;5041916;28;20227;-62
2023/06/27 10:14:36;;;;;;;2.77;1.40;;;21.90;1.00;;;;;;5043430;28;20589;-62
2023/06/27 10:17:05;;;;;;;3.80;1.30;;;21.90;1.00;;;;;;5039431;28;20681;-62
2023/06/27 10:19:36;;;;;;;3.47;1.10;;;22.10;1.00;;;;;;5040862;28;20425;-62
2023/06/27 10:22:08;;;;;;;2.07;1.10;;;22.30;1.00;;;;;;5040009;28;20203;-62
2023/06/27 10:24:39;;;;;;;3.90;1.40;;;22.60;1.00;;;;;;5037558;28;20642;-63
2023/06/27 10:27:09;;;;;;;2.50;1.10;;;22.40;1.00;;;;;;5038839;28;20704;-63
2023/06/27 10:29:43;;;;;;;3.40;1.20;;;22.20;1.00;;;;;;5040911;28;20275;-62
2023/06/27 10:32:14;;;;;;;4.00;1.47;;;22.50;1.00;;;;;;5037966;28;20192;-63
2023/06/27 10:34:42;;;;;;;5.50;1.37;;;22.50;1.00;;;;;;5040278;28;20199;-62
2023/06/27 10:37:24;;;;;;;2.17;1.17;;;22.40;1.00;;;;;;5042399;28;20803;-63
2023/06/27 10:40:00;;;;;;;3.70;1.20;;;22.70;1.00;;;;;;5037465;28;20196;-62
2023/06/27 10:42:29;;;;;;;3.20;1.10;;;22.60;99.90;;;;;;5023213;28;20204;-63
2023/06/27 10:44:59;;;;;;;1.60;1.20;;;22.70;99.90;;;;;;5039216;28;20656;-62
2023/06/27 10:47:39;;;;;;;2.50;1.10;;;23.20;99.90;;;;;;5040071;28;20221;-63
2023/06/27 10:50:19;;;;;;;2.00;1.03;;;23.30;99.90;;;;;;5008166;28;20235;-62
2023/06/27 10:53:06;;;;;;;6.03;1.10;;;23.50;99.90;;;;;;5039385;28;20569;-63
2023/06/27 10:55:33;;;;;;;4.23;0.87;;;23.60;99.90;;;;;;5032094;28;20219;-62
2023/06/27 10:58:10;;;;;;;2.30;1.00;;;23.70;99.90;;;;;;5031855;28;20208;-63
2023/06/27 11:00:42;;;;;;;2.47;1.30;;;23.20;99.90;;;;;;5034022;28;20606;-61
2023/06/27 11:03:10;;;;;;;2.30;1.03;;;22.90;99.90;;;;;;5023204;28;20367;-62
2023/06/27 11:05:51;;;;;;;2.83;1.10;;;22.70;99.90;;;;;;5040740;28;20647;-61
2023/06/27 11:08:20;;;;;;;1.90;0.83;;;23.00;99.90;;;;;;5038287;28;20339;-62
2023/06/27 11:11:05;;;;;;;1.43;1.10;;;23.00;99.90;;;;;;5039210;28;20266;-63
2023/06/27 11:13:37;;;;;;;3.53;1.20;;;22.70;99.90;;;;;;5037190;28;20199;-62
2023/06/27 11:16:05;;;;;;;3.43;1.00;;;22.50;99.90;;;;;;5039577;28;20204;-62
2023/06/27 11:18:33;;;;;;;4.93;1.13;;;22.60;99.90;;;;;;5038037;28;20414;-62
2023/06/27 11:21:02;;;;;;;4.27;1.20;;;22.80;99.90;;;;;;5020134;28;20211;-61
2023/06/27 11:23:29;;;;;;;1.63;0.93;;;22.80;99.90;;;;;;5021441;28;20612;-61
2023/06/27 11:25:56;;;;;;;4.53;1.20;;;22.90;99.90;;;;;;5019097;28;20207;-65
2023/06/27 11:28:24;;;;;;;6.57;1.40;;;22.70;99.90;;;;;;5039631;28;20214;-62
2023/06/27 11:30:59;;;;;;;4.73;1.30;;;22.90;99.90;;;;;;5033460;28;20286;-61
2023/06/27 11:33:26;;;;;;;2.93;1.10;;;22.90;99.90;;;;;;5035488;28;21424;-61
2023/06/27 11:35:58;;;;;;;3.27;1.27;;;22.60;99.90;;;;;;5028665;28;20214;-61
2023/06/27 11:38:26;;;;;;;1.57;1.07;;;22.70;99.90;;;;;;5037945;28;20200;-61
2023/06/27 11:40:53;;;;;;;3.20;1.20;;;23.00;99.90;;;;;;5036797;28;20215;-61
2023/06/27 11:43:20;;;;;;;2.63;1.30;;;22.90;99.90;;;;;;5034682;28;20215;-61
2023/06/27 11:45:49;;;;;;;3.53;0.93;;;22.70;99.90;;;;;;5024396;28;20192;-61
2023/06/27 11:48:16;;;;;;;5.03;1.43;;;22.50;99.90;;;;;;5033109;28;20234;-61
2023/06/27 11:50:56;;;;;;;3.83;1.10;;;22.70;99.90;;;;;;5018177;28;20598;-62
2023/06/27 11:53:26;;;;;;;1.53;1.10;;;22.80;99.90;;;;;;5032756;28;20634;-61
2023/06/27 11:55:57;;;;;;;3.13;0.93;;;23.00;99.90;;;;;;5019972;28;20200;-59
2023/06/27 11:58:32;;;;;;;3.53;1.37;;;22.80;99.90;;;;;;5034050;28;20258;-58
2023/06/27 12:01:00;;;;;;;3.37;1.17;;;22.80;99.90;;;;;;5035870;28;20527;-57
2023/06/27 12:03:29;;;;;;;4.30;1.30;;;22.70;99.90;;;;;;5033712;28;20227;-60
2023/06/27 12:05:57;;;;;;;1.97;1.00;;;22.70;99.90;;;;;;5015396;28;20543;-58
2023/06/27 12:08:34;;;;;;;3.97;1.10;;;23.00;99.90;;;;;;5031303;28;20255;-57
2023/06/27 12:11:03;;;;;;;3.83;1.00;;;23.40;99.90;;;;;;5011344;28;20205;-59
2023/06/27 12:13:34;;;;;;;4.33;1.50;;;23.00;99.90;;;;;;5027396;28;20209;-59
2023/06/27 12:16:02;;;;;;;2.27;1.10;;;22.70;99.90;;;;;;5031466;28;20208;-58
2023/06/27 12:18:30;;;;;;;5.20;1.20;;;22.90;99.90;;;;;;5031737;28;20839;-59
2023/06/27 12:20:58;;;;;;;2.97;1.10;;;22.90;99.90;;;;;;5013517;28;20586;-57
2023/06/27 12:23:30;;;;;;;4.23;1.20;;;23.20;99.90;;;;;;5032916;28;20215;-59
2023/06/27 12:25:58;;;;;;;3.87;1.07;;;23.20;99.90;;;;;;5011100;28;20299;-60
2023/06/27 12:28:25;;;;;;;3.47;1.13;;;23.50;99.90;;;;;;5011067;28;20211;-58
2023/06/27 12:30:51;;;;;;;2.87;1.10;;;23.60;99.90;;;;;;5030875;28;20215;-61
2023/06/27 12:33:18;;;;;;;4.47;1.37;;;23.50;99.90;;;;;;5023495;28;20531;-59
2023/06/27 12:35:47;;;;;;;4.73;1.50;;;23.50;99.90;;;;;;5028266;28;20377;-61
2023/06/27 12:38:13;;;;;;;3.93;1.10;;;23.60;99.90;;;;;;5034035;28;20218;-59
2023/06/27 12:40:40;;;;;;;2.57;1.00;;;23.50;99.90;;;;;;5032616;28;20198;-58
2023/06/27 12:43:09;;;;;;;3.03;1.03;;;23.60;99.90;;;;;;5033950;28;20199;-58
2023/06/27 12:45:36;;;;;;;1.77;1.20;;;23.90;99.90;;;;;;4998058;28;20232;-58
2023/06/27 12:48:10;;;;;;;3.20;1.00;;;23.70;99.90;;;;;;5008728;28;20216;-60
2023/06/27 12:50:36;;;;;;;2.03;0.93;;;23.80;99.90;;;;;;5014249;28;20203;-61
2023/06/27 12:53:04;;;;;;;3.27;1.03;;;23.90;99.90;;;;;;4980819;28;20196;-60
2023/06/27 12:55:30;;;;;;;4.00;1.00;;;24.00;99.90;;;;;;5010750;28;20204;-59
2023/06/27 12:57:59;;;;;;;3.13;1.33;;;24.20;99.90;;;;;;5013893;28;20208;-59
2023/06/27 13:00:26;;;;;;;1.13;0.87;;;24.30;99.90;;;;;;5032697;28;20200;-60